| time (UTC) | temp F | wind direction | speed MPH | gust MPH | rain 1hr in | rain 24hr in | rain mn in | humidity % | barometer mb |
| 20260904063847 | 80 | 176 | 0.0 | 6.0 | 0.00 | 0.00 | 0.00 | 72 | 1009.7 |
| 20260904062346 | 81 | 167 | 3.0 | 6.0 | 0.00 | 0.00 | 0.00 | 71 | 1009.6 |
| 20260904060846 | 81 | 134 | 3.0 | 6.0 | 0.00 | 0.00 | 0.00 | 70 | 1009.5 |
| 20260904055344 | 82 | 195 | 2.0 | 7.0 | 0.00 | 0.00 | 0.00 | 69 | 1009.6 |
| 20260904053843 | 82 | 153 | 0.0 | 6.0 | 0.00 | 0.00 | 0.00 | 68 | 1009.5 |
| 20260904050841 | 83 | 155 | 2.0 | 7.0 | 0.00 | 0.00 | 0.00 | 67 | 1009.3 |
| 20260904045340 | 83 | 160 | 0.0 | 6.0 | 0.00 | 0.00 | 0.00 | 66 | 1009.2 |
| 20260904043840 | 84 | 142 | 5.0 | 7.0 | 0.00 | 0.00 | 0.00 | 65 | 1009.2 |
| 20260904042338 | 84 | 149 | 3.0 | 6.0 | 0.00 | 0.00 | 0.00 | 65 | 1009.2 |
| 20260904035336 | 85 | 154 | 0.0 | 6.0 | 0.00 | 0.00 | 0.00 | 63 | 1008.9 |
| 20260904033836 | 85 | 212 | 0.0 | 7.0 | 0.00 | 0.00 | 0.00 | 63 | 1008.9 |
| 20260904032335 | 86 | 129 | 4.0 | 7.0 | 0.00 | 0.00 | 0.00 | 62 | 1008.8 |
| 20260904030834 | 86 | 118 | 6.0 | 10.0 | 0.00 | 0.00 | 0.00 | 61 | 1008.6 |
| 20260904025333 | 87 | 142 | 4.0 | 15.0 | 0.00 | 0.00 | 0.00 | 60 | 1008.4 |
| 20260904023832 | 88 | 176 | 0.0 | 7.0 | 0.00 | 0.00 | 0.00 | 59 | 1008.3 |
| 20260904022331 | 88 | 137 | 4.0 | 11.0 | 0.00 | 0.00 | 0.00 | 57 | 1008.2 |
| 20260904020830 | 89 | 176 | 5.0 | 8.0 | 0.00 | 0.00 | 0.00 | 55 | 1007.9 |
| 20260904015329 | 89 | 113 | 0.0 | 6.0 | 0.00 | 0.00 | 0.00 | 53 | 1007.7 |
| 20260904013828 | 90 | 129 | 0.0 | 7.0 | 0.00 | 0.00 | 0.00 | 51 | 1007.4 |
| 20260904012327 | 91 | 152 | 3.0 | 7.0 | 0.00 | 0.00 | 0.00 | 49 | 1007.1 |
| 20260904010826 | 92 | 208 | 3.0 | 6.0 | 0.00 | 0.00 | 0.00 | 47 | 1007.0 |
| 20260904005325 | 92 | 146 | 3.0 | 7.0 | 0.00 | 0.00 | 0.00 | 46 | 1006.9 |
| 20260904003824 | 93 | 153 | 1.0 | 7.0 | 0.00 | 0.00 | 0.00 | 45 | 1006.7 |
| 20260904002323 | 94 | 127 | 0.0 | 7.0 | 0.00 | 0.00 | 0.00 | 43 | 1006.6 |
| 20260903235321 | 96 | 201 | 1.0 | 10.0 | 0.00 | 0.00 | 0.00 | 39 | 1006.5 |
| 20260903233820 | 97 | 101 | 0.0 | 6.0 | 0.00 | 0.00 | 0.00 | 39 | 1006.4 |
| 20260903232319 | 98 | 126 | 5.0 | 6.0 | 0.00 | 0.00 | 0.00 | 38 | 1006.4 |
| 20260903230819 | 98 | 105 | 3.0 | 11.0 | 0.00 | 0.00 | 0.00 | 37 | 1006.4 |
| 20260903225317 | 99 | 195 | 4.0 | 7.0 | 0.00 | 0.00 | 0.00 | 36 | 1006.3 |
| 20260903223816 | 99 | 215 | 2.0 | 10.0 | 0.00 | 0.00 | 0.00 | 37 | 1006.3 |
| 20260903222315 | 99 | 205 | 1.0 | 11.0 | 0.00 | 0.00 | 0.00 | 36 | 1006.2 |
| 20260903220814 | 99 | 119 | 4.0 | 8.0 | 0.00 | 0.00 | 0.00 | 37 | 1006.3 |
| 20260903215313 | 100 | 128 | 3.0 | 7.0 | 0.00 | 0.00 | 0.00 | 38 | 1006.4 |
| 20260903212311 | 100 | 125 | 6.0 | 11.0 | 0.00 | 0.00 | 0.00 | 38 | 1006.6 |
| 20260903210811 | 100 | 166 | 0.0 | 8.0 | 0.00 | 0.00 | 0.00 | 38 | 1006.7 |
| 20260903205310 | 100 | 233 | 0.0 | 7.0 | 0.00 | 0.00 | 0.00 | 38 | 1006.9 |
| 20260903203809 | 100 | 177 | 3.0 | 7.0 | 0.00 | 0.00 | 0.00 | 39 | 1007.0 |
| 20260903202308 | 100 | 163 | 4.0 | 7.0 | 0.00 | 0.00 | 0.00 | 39 | 1007.1 |
| 20260903200807 | 100 | 155 | 1.0 | 7.0 | 0.00 | 0.00 | 0.00 | 40 | 1007.3 |
| 20260903193805 | 99 | 132 | 6.0 | 9.0 | 0.00 | 0.00 | 0.00 | 40 | 1007.6 |
| 20260903192306 | 98 | 160 | 2.0 | 7.0 | 0.00 | 0.00 | 0.00 | 42 | 1007.7 |
| 20260903190803 | 98 | 105 | 5.0 | 11.0 | 0.00 | 0.00 | 0.00 | 43 | 1008.0 |
| 20260903183801 | 97 | 167 | 0.0 | 13.0 | 0.00 | 0.00 | 0.00 | 45 | 1008.5 |
| 20260903180759 | 95 | 105 | 3.0 | 11.0 | 0.00 | 0.00 | 0.00 | 48 | 1008.8 |
| 20260903175258 | 94 | 143 | 0.0 | 11.0 | 0.00 | 0.00 | 0.00 | 49 | 1009.0 |
| 20260903173757 | 93 | 206 | 0.0 | 11.0 | 0.00 | 0.00 | 0.00 | 50 | 1009.3 |
| 20260903172256 | 93 | 163 | 4.0 | 11.0 | 0.00 | 0.00 | 0.00 | 51 | 1009.5 |
| 20260903170755 | 92 | 184 | 0.0 | 10.0 | 0.00 | 0.00 | 0.00 | 53 | 1009.6 |
| 20260903165254 | 91 | 158 | 7.0 | 13.0 | 0.00 | 0.00 | 0.00 | 54 | 1009.9 |
| 20260903163754 | 90 | 200 | 6.0 | 11.0 | 0.00 | 0.00 | 0.00 | 56 | 1009.9 |
| 20260903162252 | 90 | 152 | 6.0 | 11.0 | 0.00 | 0.00 | 0.00 | 56 | 1009.9 |
| 20260903160752 | 89 | 143 | 2.0 | 9.0 | 0.00 | 0.00 | 0.00 | 57 | 1010.0 |
| 20260903155250 | 87 | 200 | 0.0 | 9.0 | 0.00 | 0.00 | 0.00 | 61 | 1010.0 |
| 20260903153750 | 87 | 167 | 3.0 | 11.0 | 0.00 | 0.00 | 0.00 | 60 | 1010.1 |
| 20260903152249 | 86 | 152 | 1.0 | 6.0 | 0.00 | 0.00 | 0.00 | 63 | 1010.0 |
| 20260903150748 | 85 | 183 | 1.0 | 7.0 | 0.00 | 0.00 | 0.00 | 63 | 1010.2 |
| 20260903145247 | 84 | 201 | 0.0 | 8.0 | 0.00 | 0.00 | 0.00 | 66 | 1010.3 |
| 20260903143746 | 83 | 91 | 4.0 | 12.0 | 0.00 | 0.00 | 0.00 | 67 | 1010.3 |
| 20260903142245 | 82 | 131 | 2.0 | 8.0 | 0.00 | 0.00 | 0.00 | 69 | 1010.3 |
| 20260903140744 | 81 | 126 | 1.0 | 7.0 | 0.00 | 0.00 | 0.00 | 70 | 1010.4 |
| 20260903135243 | 80 | 131 | 0.0 | 5.0 | 0.00 | 0.00 | 0.00 | 72 | 1010.5 |
| 20260903133742 | 78 | 114 | 2.0 | 6.0 | 0.00 | 0.00 | 0.00 | 74 | 1010.4 |
| 20260903132241 | 77 | 148 | 0.0 | 6.0 | 0.00 | 0.00 | 0.00 | 75 | 1010.4 |
| 20260903130740 | 76 | 129 | 0.0 | 6.0 | 0.00 | 0.00 | 0.00 | 76 | 1010.5 |
| 20260903125239 | 76 | 163 | 0.0 | 6.0 | 0.00 | 0.00 | 0.00 | 76 | 1010.4 |
| 20260903123738 | 76 | 197 | 0.0 | 5.0 | 0.00 | 0.00 | 0.00 | 76 | 1010.4 |
| 20260903122237 | 76 | 218 | 0.0 | 5.0 | 0.00 | 0.00 | 0.00 | 75 | 1010.2 |
| 20260903120736 | 76 | 158 | 0.0 | 4.0 | 0.00 | 0.00 | 0.00 | 75 | 1010.0 |
| 20260903115235 | 76 | 182 | 0.0 | 6.0 | 0.00 | 0.00 | 0.00 | 75 | 1009.9 |
| 20260903112233 | 76 | 145 | 0.0 | 3.0 | 0.00 | 0.00 | 0.00 | 73 | 1009.8 |
| 20260903103731 | 77 | 113 | 0.0 | 1.0 | 0.00 | 0.00 | 0.00 | 70 | 1009.9 |
| 20260903102229 | 77 | 160 | 0.0 | 1.0 | 0.00 | 0.00 | 0.00 | 69 | 1010.1 |
| 20260903100728 | 78 | 152 | 0.0 | 3.0 | 0.00 | 0.00 | 0.00 | 68 | 1010.0 |
| 20260903095227 | 78 | 172 | 0.0 | 6.0 | 0.00 | 0.00 | 0.00 | 67 | 1010.0 |
| 20260903093726 | 79 | 140 | 0.0 | 4.0 | 0.00 | 0.00 | 0.00 | 66 | 1009.9 |
| 20260903092225 | 79 | 158 | 0.0 | 4.0 | 0.00 | 0.00 | 0.00 | 64 | 1009.9 |
| 20260903090724 | 80 | 169 | 0.0 | 4.0 | 0.00 | 0.00 | 0.00 | 63 | 1009.8 |
| 20260903085223 | 80 | 160 | 0.0 | 4.0 | 0.00 | 0.00 | 0.00 | 63 | 1009.8 |
| 20260903083723 | 80 | 170 | 0.0 | 6.0 | 0.00 | 0.00 | 0.00 | 62 | 1009.8 |
| 20260903082222 | 80 | 237 | 0.0 | 5.0 | 0.00 | 0.00 | 0.00 | 61 | 1009.7 |
| 20260903080721 | 81 | 136 | 4.0 | 4.0 | 0.00 | 0.00 | 0.00 | 61 | 1009.5 |
| 20260903073719 | 81 | 146 | 0.0 | 4.0 | 0.00 | 0.00 | 0.00 | 59 | 1009.6 |
| 20260903072218 | 82 | 139 | 0.0 | 4.0 | 0.00 | 0.00 | 0.00 | 58 | 1009.5 |
| 20260903070717 | 82 | 166 | 2.0 | 3.0 | 0.00 | 0.00 | 0.00 | 57 | 1009.5 |